Аэропорт: Кадала. Чита

ICAO: UIAA

METAR:
2019/03/26 13:00
UIAA 261300Z AUTO 00000MPS 9999 NCD M11/M17 Q1021 RMK QFE707/0943
METAR:
2019/03/26 12:21
TAF UIAA 261100Z 2612/2712 29003G08MPS 9999 NSC